Terminal Aerodrome Forecast
Issued by NWS

Home | Current Version | Previous Version | Text Only | Print | Product List | Glossary On
Versions: 1 2 3 4 5 6 7 8 9 10 11 12 13 14 15 16 17 18 19 20 21 22 23 24
000
FTUS42 KRAH 262320
TAFRWI
TAF
KRWI 262320Z 2700/2724 VRB04KT P6SM OVC050
     FM270700 15005KT P6SM -SHRA OVC025
     FM271000 18005KT 6SM -SHRA BR OVC015
      TEMPO 2711/2713 00000KT 2SM BR OVC007
     FM271300 21006KT P6SM BKN035
     FM271700 23009KT P6SM SCT050=

USA.gov is the U.S. government's official web portal to all federal, state and local government web resources and services.